Time;durP1;ratioP1;P1;durP2;ratioP2;P2;SDS_P1;SDS_P2;PMS_P1;PMS_P2;Temp;Humidity;BMP_temperature;BMP_pressure;BME280_temperature;BME280_humidity;BME280_pressure;Samples;Min_cycle;Max_cycle;Signal;HPM_P1;HPM_P2
2022/05/15 00:01:33;;;;;;;8.02;3.28;;;9.80;1.00;;;10.13;87.90;98613.84;5062921;27;123178;-72
2022/05/15 00:04:03;;;;;;;12.88;4.18;;;9.80;1.00;;;10.12;87.54;98623.91;5061031;27;121927;-79
2022/05/15 00:06:31;;;;;;;11.98;3.85;;;9.70;1.00;;;10.06;87.89;98620.59;5059615;27;130765;-79
2022/05/15 00:09:00;;;;;;;10.52;3.45;;;9.70;1.00;;;10.04;87.66;98612.00;5045356;27;128316;-76
2022/05/15 00:11:28;;;;;;;14.68;3.90;;;9.70;1.00;;;10.01;87.80;98615.38;5061104;27;120260;-76
2022/05/15 00:13:58;;;;;;;14.60;4.22;;;9.70;1.00;;;9.93;88.61;98621.66;5043922;27;118600;-71
2022/05/15 00:16:26;;;;;;;11.18;3.17;;;9.70;1.00;;;9.89;88.67;98618.00;5039775;27;130874;-74
2022/05/15 00:18:55;;;;;;;12.25;4.40;;;9.60;1.00;;;9.90;88.62;98611.47;5058847;27;130716;-79
2022/05/15 00:21:25;;;;;;;11.38;3.58;;;9.60;1.00;;;9.93;88.92;98618.94;5059356;27;119943;-74
2022/05/15 00:23:54;;;;;;;12.75;4.47;;;9.60;1.00;;;9.87;89.38;98617.53;5057957;27;119482;-75
2022/05/15 00:26:22;;;;;;;9.35;3.63;;;9.60;1.00;;;9.90;89.50;98616.88;5060598;27;130374;-72
2022/05/15 00:28:52;;;;;;;14.82;3.90;;;9.60;1.00;;;9.90;89.60;98617.66;5061681;27;129452;-77
2022/05/15 00:31:23;;;;;;;12.70;3.85;;;9.60;1.00;;;9.77;90.46;98620.63;5062694;27;119903;-73
2022/05/15 00:33:53;;;;;;;12.15;3.75;;;9.50;1.00;;;9.79;90.82;98626.53;5048668;27;119135;-75
2022/05/15 00:36:22;;;;;;;13.30;3.78;;;9.60;1.00;;;9.78;90.96;98612.16;5063850;27;130543;-74
2022/05/15 00:38:52;;;;;;;14.02;4.20;;;9.50;1.00;;;9.81;91.08;98625.06;5066952;27;130079;-76
2022/05/15 00:41:21;;;;;;;11.00;4.05;;;9.60;1.00;;;9.77;91.46;98615.19;5082363;27;120722;-77
2022/05/15 00:43:52;;;;;;;11.73;3.50;;;9.50;1.00;;;9.75;91.58;98614.75;5083140;27;120507;-78
2022/05/15 00:46:24;;;;;;;15.25;4.10;;;9.50;1.00;;;9.77;91.40;98617.91;5082443;27;130202;-76
2022/05/15 00:48:54;;;;;;;16.30;3.80;;;9.50;1.00;;;9.77;91.83;98617.91;5084494;27;130240;-76
2022/05/15 00:51:30;;;;;;;14.65;3.72;;;9.50;1.00;;;9.78;91.75;98614.09;5050834;27;121673;-72
2022/05/15 00:54:06;;;;;;;11.15;3.78;;;9.50;1.00;;;9.75;92.23;98615.53;5065970;27;121668;-77
2022/05/15 00:56:37;;;;;;;;;;;9.40;1.00;;;9.68;92.07;98610.63;5065992;27;130588;-77
2022/05/15 00:59:17;;;;;;;12.98;4.10;;;9.40;1.00;;;9.68;91.49;98618.75;5082677;27;129949;-77
2022/05/15 01:01:45;;;;;;;13.73;4.60;;;9.40;1.00;;;9.67;91.95;98609.03;5064156;27;119908;-75
2022/05/15 01:04:15;;;;;;;11.40;3.80;;;9.40;1.00;;;9.63;92.35;98607.31;5050166;27;118460;-76
2022/05/15 01:06:44;;;;;;;11.23;4.07;;;9.40;1.00;;;9.56;93.08;98607.81;5062855;27;129934;-71
2022/05/15 01:09:17;;;;;;;16.17;4.20;;;9.40;1.00;;;9.46;93.18;98608.22;5066046;27;129019;-76
2022/05/15 01:11:48;;;;;;;13.18;4.50;;;9.30;1.00;;;9.45;93.25;98603.91;5047135;27;120164;-75
2022/05/15 01:14:19;;;;;;;11.30;4.03;;;9.30;1.00;;;9.41;94.30;98609.19;5083036;27;119633;-77
2022/05/15 01:16:49;;;;;;;12.50;4.30;;;9.30;1.00;;;9.43;94.04;98603.44;5061450;27;131171;-73
2022/05/15 01:19:29;;;;;;;14.05;4.43;;;9.30;1.00;;;9.41;94.27;98606.47;5067748;27;129731;-75
2022/05/15 01:22:01;;;;;;;13.65;4.05;;;9.20;1.00;;;9.40;94.55;98601.38;5064107;27;118984;-76
2022/05/15 01:24:30;;;;;;;13.77;4.10;;;9.20;1.00;;;9.38;94.55;98600.91;5068169;27;119251;-76
2022/05/15 01:27:03;;;;;;;12.27;4.72;;;9.20;1.00;;;9.37;94.93;98604.75;5063717;27;129905;-76
2022/05/15 01:29:39;;;;;;;12.15;4.63;;;9.20;1.00;;;9.33;95.06;98599.16;5066868;27;130217;-79
2022/05/15 01:32:10;;;;;;;13.17;4.57;;;9.10;1.00;;;9.32;94.99;98603.78;5049829;27;119967;-72
2022/05/15 01:34:40;;;;;;;17.10;4.63;;;9.10;1.00;;;9.27;95.21;98606.69;5049552;27;118943;-77
2022/05/15 01:37:11;;;;;;;13.00;4.47;;;9.10;1.00;;;9.24;95.67;98611.94;5062619;27;130590;-73
2022/05/15 01:39:40;;;;;;;12.70;4.25;;;9.00;1.00;;;9.29;95.42;98604.44;5065842;27;129888;-73
2022/05/15 01:42:09;;;;;;;13.63;4.38;;;9.10;1.00;;;9.26;95.60;98604.31;5062336;27;121770;-75
2022/05/15 01:44:38;;;;;;;10.27;4.00;;;9.00;1.00;;;9.17;96.12;98601.63;5063483;27;122771;-75
2022/05/15 01:47:07;;;;;;;16.90;4.80;;;9.00;1.00;;;9.15;96.48;98609.28;5063868;27;130612;-78
2022/05/15 01:49:37;;;;;;;14.00;4.47;;;8.90;1.00;;;9.12;96.33;98605.28;5063274;27;130243;-78
2022/05/15 01:52:07;;;;;;;12.90;4.78;;;8.90;1.00;;;9.06;96.67;98601.16;5063418;27;120087;-74
2022/05/15 01:54:37;;;;;;;16.30;5.15;;;8.90;1.00;;;9.09;96.85;98615.97;5049490;27;119567;-75
2022/05/15 01:57:08;;;;;;;16.20;4.90;;;8.80;1.00;;;9.05;97.28;98609.59;5062488;27;130341;-74
2022/05/15 01:59:38;;;;;;;15.70;5.57;;;8.80;1.00;;;9.06;97.19;98617.41;5063317;27;129641;-78
2022/05/15 02:02:08;;;;;;;21.13;4.82;;;8.80;1.00;;;9.10;97.19;98622.97;5063815;27;119549;-76
2022/05/15 02:04:37;;;;;;;13.25;4.18;;;8.80;1.00;;;9.11;97.38;98616.44;5062166;27;119840;-74
2022/05/15 02:07:06;;;;;;;12.63;4.70;;;8.90;1.00;;;9.17;96.99;98613.22;5062574;27;130131;-77
2022/05/15 02:09:36;;;;;;;11.55;4.60;;;8.90;1.00;;;9.16;96.86;98617.06;5068743;27;129724;-78
2022/05/15 02:12:06;;;;;;;13.82;4.53;;;8.90;1.00;;;9.11;96.96;98624.56;5067040;27;120280;-79
2022/05/15 02:14:35;;;;;;;17.67;5.40;;;8.80;1.00;;;9.07;97.01;98618.19;5068949;27;118919;-77
2022/05/15 02:17:03;;;;;;;19.55;5.53;;;8.80;1.00;;;9.15;96.85;98625.50;5063726;27;130983;-75
2022/05/15 02:19:32;;;;;;;16.83;4.72;;;8.80;1.00;;;9.16;96.75;98621.66;5082017;27;128971;-77
2022/05/15 02:22:01;;;;;;;18.05;5.35;;;8.90;1.00;;;9.17;97.06;98617.84;5081540;27;120289;-74
2022/05/15 02:24:29;;;;;;;14.90;4.28;;;8.80;1.00;;;9.17;97.12;98625.97;5065689;27;119195;-77
2022/05/15 02:26:59;;;;;;;14.05;4.40;;;8.90;1.00;;;9.21;97.19;98624.22;5061164;27;130244;-75
2022/05/15 02:29:29;;;;;;;13.23;4.65;;;8.90;1.00;;;9.23;96.95;98621.97;5064864;27;130115;-74
2022/05/15 02:31:57;;;;;;;13.55;4.57;;;8.90;1.00;;;9.21;97.07;98624.22;5063480;27;121685;-78
2022/05/15 02:34:25;;;;;;;16.40;5.65;;;8.90;1.00;;;9.27;96.83;98624.81;5064219;27;122390;-73
2022/05/15 02:36:55;;;;;;;11.68;4.72;;;8.90;1.00;;;9.26;96.85;98629.44;5061071;27;130431;-77
2022/05/15 02:39:23;;;;;;;11.40;4.13;;;8.90;1.00;;;9.29;96.69;98617.97;5080870;27;129748;-75
2022/05/15 02:41:54;;;;;;;15.30;4.60;;;8.90;1.00;;;9.25;96.26;98614.31;5062447;27;119884;-76
2022/05/15 02:44:25;;;;;;;11.20;4.32;;;8.90;1.00;;;9.28;96.64;98618.31;5047446;27;118430;-75
2022/05/15 02:46:55;;;;;;;11.10;4.22;;;8.90;1.00;;;9.32;96.15;98620.03;5061180;27;130163;-77
2022/05/15 02:52:09;;;;;;;13.20;4.40;;;8.90;1.00;;;9.26;95.91;98621.31;5048445;27;120248;-76
2022/05/15 02:54:38;;;;;;;12.60;4.05;;;8.90;1.00;;;9.27;96.07;98628.34;5048706;27;118915;-74
2022/05/15 02:57:09;;;;;;;10.90;4.00;;;8.90;1.00;;;9.29;96.23;98626.09;5083599;27;130802;-76
2022/05/15 02:59:40;;;;;;;12.50;4.07;;;8.90;1.00;;;9.39;95.89;98629.56;5065742;27;129347;-77
2022/05/15 03:02:09;;;;;;;19.38;4.82;;;9.00;1.00;;;9.39;95.33;98629.56;5082643;27;119491;-77
2022/05/15 03:04:37;;;;;;;10.73;3.67;;;9.00;1.00;;;9.40;95.70;98626.53;5067140;27;119382;-71
2022/05/15 03:07:07;;;;;;;15.43;4.60;;;9.00;1.00;;;9.41;95.52;98633.56;5062563;27;130356;-76
2022/05/15 03:09:36;;;;;;;12.05;4.32;;;9.00;1.00;;;9.49;94.91;98629.19;5066438;27;129519;-76
2022/05/15 03:12:06;;;;;;;12.27;4.05;;;9.00;1.00;;;9.49;95.27;98640.03;5080756;27;120440;-75
2022/05/15 03:14:35;;;;;;;12.27;4.07;;;9.00;1.00;;;9.48;94.99;98633.03;5080773;27;119888;-75
2022/05/15 03:17:05;;;;;;;10.60;4.00;;;9.00;1.00;;;9.52;94.39;98633.97;5063350;27;130535;-76
2022/05/15 03:19:34;;;;;;;14.32;4.78;;;9.00;1.00;;;9.53;94.81;98624.72;5064241;27;130436;-74
2022/05/15 03:22:03;;;;;;;12.88;4.25;;;9.00;1.00;;;9.62;94.18;98633.59;5060079;27;123234;-77
2022/05/15 03:24:32;;;;;;;11.20;3.90;;;9.00;1.00;;;9.47;94.74;98639.56;5065984;27;123399;-77
2022/05/15 03:27:01;;;;;;;10.57;4.00;;;9.00;1.00;;;9.48;94.86;98641.16;5062123;27;130160;-74
2022/05/15 03:29:30;;;;;;;10.02;3.80;;;9.00;1.00;;;9.43;95.13;98649.47;5065493;27;129917;-74
2022/05/15 03:31:59;;;;;;;19.00;4.40;;;9.00;1.00;;;9.58;94.57;98656.25;5049296;27;118537;-77
2022/05/15 03:34:29;;;;;;;15.02;4.50;;;9.00;1.00;;;9.65;94.27;98653.84;5047963;27;119154;-73
2022/05/15 03:36:58;;;;;;;12.30;3.97;;;9.10;1.00;;;9.74;93.48;98651.06;5061094;27;130017;-75
2022/05/15 03:39:27;;;;;;;12.38;4.47;;;9.10;1.00;;;9.77;93.02;98655.84;5078641;27;130307;-74
2022/05/15 03:41:56;;;;;;;9.85;3.63;;;9.10;1.00;;;9.77;93.03;98661.25;5080102;27;119697;-78
2022/05/15 03:44:24;;;;;;;11.18;4.28;;;9.10;1.00;;;9.73;93.22;98654.94;5063127;27;119940;-77
2022/05/15 03:46:53;;;;;;;11.45;3.95;;;9.10;1.00;;;9.77;93.23;98658.56;5059533;27;130719;-75
2022/05/15 03:49:21;;;;;;;10.00;3.78;;;9.10;1.00;;;9.68;93.23;98659.41;5079781;27;129553;-75
2022/05/15 03:51:51;;;;;;;12.15;4.15;;;9.10;1.00;;;9.70;93.34;98662.56;5079745;27;120544;-73
2022/05/15 03:54:20;;;;;;;14.82;4.07;;;9.10;1.00;;;9.70;93.36;98662.56;5063222;27;119182;-75
2022/05/15 03:56:52;;;;;;;12.38;4.25;;;9.10;1.00;;;9.76;93.39;98670.53;5059714;27;130512;-74
2022/05/15 03:59:29;;;;;;;14.65;4.05;;;9.10;1.00;;;9.80;93.20;98668.75;5062941;27;129408;-74
2022/05/15 04:01:58;;;;;;;14.25;4.28;;;9.20;1.00;;;9.93;92.45;98669.66;5080141;27;119775;-75
2022/05/15 04:04:30;;;;;;;12.70;3.95;;;9.20;1.00;;;10.12;91.85;98674.66;5066825;27;119514;-76
2022/05/15 04:07:02;;;;;;;10.40;3.97;;;9.30;1.00;;;10.20;91.45;98676.50;5062511;27;130465;-76
2022/05/15 04:09:33;;;;;;;15.82;4.10;;;9.30;1.00;;;10.31;90.34;98687.75;5079645;27;129748;-74
2022/05/15 04:12:02;;;;;;;16.02;4.32;;;9.30;1.00;;;10.33;90.85;98678.22;5061215;27;122238;-79
2022/05/15 04:14:31;;;;;;;11.07;3.72;;;9.40;1.00;;;10.36;90.14;98691.09;5062184;27;122351;-76
2022/05/15 04:16:59;;;;;;;14.35;4.35;;;9.40;1.00;;;10.33;90.36;98686.34;5080677;27;130475;-78
2022/05/15 04:19:29;;;;;;;11.43;4.32;;;9.50;1.00;;;10.34;90.61;98690.63;5061789;27;130599;-76
2022/05/15 04:22:02;;;;;;;15.13;3.78;;;9.50;1.00;;;10.47;90.49;98688.81;5080788;27;119510;-75
2022/05/15 04:24:31;;;;;;;15.35;4.15;;;9.60;1.00;;;10.55;89.02;98695.25;5061152;27;119650;-75
2022/05/15 04:27:00;;;;;;;13.13;4.50;;;9.40;1.00;;;10.59;89.42;98686.13;5060394;27;131776;-77
2022/05/15 04:29:29;;;;;;;13.32;4.68;;;9.50;1.00;;;10.50;89.34;98698.19;5079384;27;128836;-75
2022/05/15 04:32:26;;;;;;;13.52;4.38;;;9.50;1.00;;;10.44;89.36;98694.88;5059886;27;120038;-71
2022/05/15 04:34:55;;;;;;;16.23;4.07;;;9.50;1.00;;;10.35;90.54;98697.66;5079952;27;119655;-74
2022/05/15 04:37:25;;;;;;;12.35;4.10;;;9.40;1.00;;;10.12;91.33;98704.47;5077360;27;130256;-77
2022/05/15 04:39:54;;;;;;;11.48;4.20;;;9.30;1.00;;;10.16;91.93;98689.13;5059780;27;130017;-78
2022/05/15 04:42:22;;;;;;;11.38;4.03;;;9.40;1.00;;;10.24;92.20;98707.25;5078837;27;119732;-73
2022/05/15 04:44:51;;;;;;;9.68;4.15;;;9.40;1.00;;;10.46;90.49;98702.69;5079227;27;119369;-76
2022/05/15 04:47:20;;;;;;;12.15;4.15;;;9.50;1.00;;;10.55;89.85;98703.41;5060381;27;130554;-76
2022/05/15 04:49:49;;;;;;;10.52;3.65;;;9.60;1.00;;;10.77;88.69;98710.44;5059911;27;130093;-79
2022/05/15 04:52:18;;;;;;;11.88;4.05;;;9.70;1.00;;;11.00;87.90;98708.16;5080078;27;119649;-72
2022/05/15 04:54:48;;;;;;;12.57;4.18;;;9.80;1.00;;;11.21;86.97;98710.84;5079873;27;119880;-75
2022/05/15 04:57:16;;;;;;;13.73;4.30;;;9.90;1.00;;;11.31;86.59;98709.59;5080227;27;131127;-76
2022/05/15 04:59:45;;;;;;;12.00;4.53;;;10.00;1.00;;;11.34;85.63;98714.38;5080093;27;130270;-76
2022/05/15 05:02:13;;;;;;;15.85;4.05;;;10.00;1.00;;;11.23;85.85;98713.22;5078471;27;122114;-77
2022/05/15 05:04:42;;;;;;;12.20;3.67;;;9.80;1.00;;;11.22;86.57;98712.44;5080873;27;122879;-77
2022/05/15 05:07:10;;;;;;;11.82;3.45;;;9.90;1.00;;;11.26;86.55;98707.09;5079984;27;130122;-79
2022/05/15 05:09:39;;;;;;;9.38;3.65;;;9.90;1.00;;;11.33;85.37;98718.22;5078135;27;129895;-73
2022/05/15 05:12:10;;;;;;;12.45;3.67;;;9.90;1.00;;;11.41;85.03;98711.91;5066406;27;118877;-77
2022/05/15 05:14:39;;;;;;;9.85;3.63;;;10.00;1.00;;;11.30;84.05;98708.03;5084584;27;119634;-76
2022/05/15 05:17:07;;;;;;;10.15;3.45;;;9.70;1.00;;;11.44;84.18;98708.53;5082540;27;129396;-75
2022/05/15 05:19:36;;;;;;;10.68;3.88;;;9.90;1.00;;;11.46;84.52;98717.13;5084506;27;129438;-77
2022/05/15 05:22:05;;;;;;;12.05;3.75;;;10.10;1.00;;;11.62;84.01;98713.75;5083513;27;120211;-75
2022/05/15 05:24:34;;;;;;;12.35;3.78;;;10.10;1.00;;;11.61;83.28;98718.41;5082900;27;119482;-74
2022/05/15 05:27:03;;;;;;;15.18;3.83;;;10.10;1.00;;;11.64;83.73;98711.47;5082674;27;130720;-76
2022/05/15 05:29:33;;;;;;;12.98;4.00;;;10.30;1.00;;;11.67;82.56;98722.50;5081720;27;130026;-76
2022/05/15 05:32:02;;;;;;;10.82;4.43;;;10.10;1.00;;;11.79;82.30;98721.69;5082322;27;120093;-74
2022/05/15 05:34:31;;;;;;;14.93;4.35;;;10.20;1.00;;;11.87;82.49;98723.53;5083449;27;119582;-77
2022/05/15 05:37:00;;;;;;;12.00;4.03;;;10.30;1.00;;;12.06;80.86;98716.78;5081713;27;129435;-78
2022/05/15 05:39:29;;;;;;;12.13;4.13;;;10.30;1.00;;;12.27;80.31;98738.41;5082455;27;130137;-73
2022/05/15 05:41:58;;;;;;;14.57;4.63;;;10.40;1.00;;;12.08;80.65;98747.13;5082246;27;120242;-77
2022/05/15 05:44:27;;;;;;;8.52;3.35;;;10.20;1.00;;;12.16;80.60;98738.06;5081777;27;119605;-77
2022/05/15 05:46:57;;;;;;;12.18;3.88;;;10.30;1.00;;;12.06;80.18;98743.97;5062765;27;130201;-74
2022/05/15 05:49:26;;;;;;;12.80;4.03;;;10.20;1.00;;;11.91;81.19;98756.28;5080279;27;130054;-74
2022/05/15 05:51:54;;;;;;;14.60;4.45;;;10.30;1.00;;;11.66;81.71;98750.00;5079789;27;122274;-74
2022/05/15 05:54:23;;;;;;;10.48;3.60;;;10.20;1.00;;;11.60;82.70;98754.84;5065162;27;121922;-75
2022/05/15 05:56:51;;;;;;;11.52;3.80;;;10.10;1.00;;;11.62;83.16;98754.53;5061432;27;130250;-75
2022/05/15 05:59:20;;;;;;;10.75;3.50;;;10.20;1.00;;;11.81;82.17;98762.94;5079820;27;129485;-74
2022/05/15 06:01:48;;;;;;;10.00;3.38;;;10.40;1.00;;;12.21;80.33;98756.88;5080519;27;119587;-75
2022/05/15 06:07:05;;;;;;;9.48;3.53;;;10.80;1.00;;;13.04;75.73;98751.19;5081183;27;130840;-78
2022/05/15 06:09:33;;;;;;;10.05;3.97;;;10.70;1.00;;;13.01;75.57;98759.22;5081690;27;129857;-77
2022/05/15 06:12:02;;;;;;;11.95;3.78;;;10.50;1.00;;;12.74;76.71;98750.69;5080941;27;119798;-76
2022/05/15 06:14:30;;;;;;;11.80;3.92;;;10.50;1.00;;;12.40;78.92;98750.06;5080735;27;120771;-76
2022/05/15 06:16:59;;;;;;;11.45;3.17;;;10.50;1.00;;;12.61;78.58;98752.66;5059881;27;130287;-73
2022/05/15 06:19:29;;;;;;;11.80;4.03;;;10.80;1.00;;;12.92;77.92;98746.56;5064175;27;129265;-76
2022/05/15 06:21:58;;;;;;;9.85;3.05;;;11.10;1.00;;;12.89;76.67;98752.69;5079731;27;120496;-76
2022/05/15 06:24:26;;;;;;;11.60;3.78;;;10.80;1.00;;;12.59;77.42;98758.44;5081113;27;119563;-76
2022/05/15 06:26:57;;;;;;;14.65;4.70;;;10.70;1.00;;;12.70;77.80;98760.66;5064318;27;129548;-75
2022/05/15 06:29:26;;;;;;;9.55;4.00;;;10.80;1.00;;;12.52;77.62;98771.81;5048016;27;128843;-74
2022/05/15 06:31:55;;;;;;;9.77;3.85;;;10.50;1.00;;;12.38;78.44;98776.81;5061669;27;120231;-77
2022/05/15 06:34:23;;;;;;;10.70;4.75;;;10.40;1.00;;;12.17;79.91;98766.03;5070756;27;119610;-77
2022/05/15 06:36:53;;;;;;;13.15;5.30;;;10.50;1.00;;;11.98;80.50;98777.47;5060319;27;130714;-75
2022/05/15 06:39:22;;;;;;;11.18;4.00;;;10.40;1.00;;;11.73;82.00;98771.97;5063639;27;129389;-76
2022/05/15 06:41:51;;;;;;;12.27;3.90;;;10.40;1.00;;;11.94;81.18;98769.22;5078385;27;122556;-76
2022/05/15 06:44:29;;;;;;;9.50;3.92;;;10.50;1.00;;;11.98;81.03;98780.22;5046359;27;120994;-73
2022/05/15 06:46:57;;;;;;;10.43;3.63;;;10.50;1.00;;;12.25;80.86;98777.94;5069729;27;130694;-77
2022/05/15 06:49:26;;;;;;;7.63;3.63;;;10.70;1.00;;;12.20;80.10;98771.63;5061985;27;129398;-76
2022/05/15 06:51:56;;;;;;;11.25;3.55;;;10.60;1.00;;;12.32;79.62;98780.91;5059676;27;120233;-76
2022/05/15 06:54:24;;;;;;;13.60;5.30;;;10.60;1.00;;;12.31;80.39;98777.41;5058371;27;119990;-75
2022/05/15 06:59:39;;;;;;;15.00;4.70;;;10.60;1.00;;;12.01;80.78;98779.53;5044391;27;130358;-78
2022/05/15 07:02:08;;;;;;;10.68;4.05;;;10.50;1.00;;;12.35;80.23;98788.38;5058945;27;121001;-74
2022/05/15 07:04:36;;;;;;;12.40;5.65;;;10.80;1.00;;;12.78;78.61;98789.72;5044471;27;118828;-74
2022/05/15 07:07:07;;;;;;;9.30;3.20;;;11.10;1.00;;;13.15;75.96;98786.91;5041466;27;130080;-74
2022/05/15 07:09:37;;;;;;;13.73;5.30;;;10.90;1.00;;;13.38;75.25;98789.09;5057409;27;129986;-76
2022/05/15 07:12:07;;;;;;;9.85;3.05;;;11.10;1.00;;;14.26;71.48;98799.94;5057950;27;120945;-75
2022/05/15 07:14:36;;;;;;;9.95;3.58;;;11.50;1.00;;;13.97;72.74;98790.25;5057809;27;120311;-73
2022/05/15 07:17:05;;;;;;;14.48;3.78;;;11.30;1.00;;;13.72;73.70;98797.81;5057819;27;130877;-73
2022/05/15 07:19:34;;;;;;;11.02;3.58;;;11.40;1.00;;;13.32;75.28;98785.78;5039379;27;129057;-70
2022/05/15 07:22:03;;;;;;;13.52;3.63;;;11.30;1.00;;;13.17;76.85;98790.06;5058257;27;119612;-73
2022/05/15 07:24:34;;;;;;;9.95;3.80;;;11.50;1.00;;;13.00;75.60;98790.34;5058706;27;120015;-74
2022/05/15 07:27:03;;;;;;;12.57;3.33;;;11.10;1.00;;;12.85;76.42;98797.28;5061573;27;130237;-74
2022/05/15 07:29:33;;;;;;;10.70;3.40;;;11.00;1.00;;;13.22;75.29;98797.97;5052070;27;129402;-77
2022/05/15 07:32:02;;;;;;;8.63;3.03;;;11.30;1.00;;;13.46;74.48;98801.78;5056618;27;122017;-74
2022/05/15 07:34:31;;;;;;;8.15;3.00;;;11.50;1.00;;;13.36;75.44;98800.34;5057369;27;123240;-72
2022/05/15 07:37:00;;;;;;;13.07;3.78;;;11.60;1.00;;;13.42;74.53;98809.88;5057047;27;130726;-75
2022/05/15 07:39:28;;;;;;;11.45;3.60;;;11.50;1.00;;;13.62;73.20;98810.00;5042424;27;128422;-74
2022/05/15 07:41:58;;;;;;;11.60;3.15;;;11.50;1.00;;;14.10;71.62;98818.25;5058377;27;120141;-73
2022/05/15 07:44:27;;;;;;;9.68;3.05;;;11.60;1.00;;;14.14;71.76;98816.41;5057858;27;120170;-73
2022/05/15 07:46:56;;;;;;;8.88;3.13;;;11.70;1.00;;;13.99;72.37;98813.31;5041790;27;130374;-73
2022/05/15 07:49:24;;;;;;;12.05;3.70;;;11.70;1.00;;;13.65;73.05;98818.28;5057414;27;129476;-71
2022/05/15 07:51:52;;;;;;;9.55;2.85;;;11.50;1.00;;;13.31;74.63;98816.94;5042367;27;118917;-75
2022/05/15 07:54:22;;;;;;;10.05;3.33;;;11.40;1.00;;;13.56;73.54;98828.56;5057571;27;120098;-73
2022/05/15 07:56:50;;;;;;;10.40;3.08;;;11.60;1.00;;;13.87;71.98;98821.59;5056306;27;131622;-73
2022/05/15 07:59:20;;;;;;;12.93;3.72;;;11.90;1.00;;;14.01;71.09;98827.41;5042031;27;128641;-73
2022/05/15 08:01:50;;;;;;;9.43;3.10;;;11.70;1.00;;;13.88;71.12;98817.69;5038863;27;119808;-73
2022/05/15 08:04:19;;;;;;;6.30;2.88;;;12.10;1.00;;;13.31;71.57;98836.00;5058256;27;119717;-73
2022/05/15 08:09:33;;;;;;;9.70;2.70;;;12.20;1.00;;;14.02;70.71;98829.00;5057865;27;130113;-76
2022/05/15 08:12:02;;;;;;;9.70;3.40;;;12.00;1.00;;;14.08;70.30;98826.78;5057649;27;120196;-74
2022/05/15 08:14:32;;;;;;;9.55;3.13;;;11.90;1.00;;;13.77;69.89;98838.44;5058330;27;119698;-72
2022/05/15 08:17:01;;;;;;;8.80;2.97;;;11.60;1.00;;;13.58;70.81;98836.38;5041759;27;129022;-75
2022/05/15 08:25:02;;;;;;;9.35;3.13;;;11.60;1.00;;;13.23;74.14;98826.81;5056732;27;121505;-74
2022/05/15 08:27:31;;;;;;;13.65;3.63;;;11.70;1.00;;;13.63;72.54;98831.47;5046253;27;130747;-74
2022/05/15 08:30:01;;;;;;;8.15;2.45;;;11.90;1.00;;;14.12;70.97;98827.66;5076954;27;129425;-73
2022/05/15 08:32:30;;;;;;;7.57;3.10;;;12.00;1.00;;;14.69;69.64;98817.38;5077711;27;119723;-70
2022/05/15 08:35:01;;;;;;;9.00;2.80;;;12.60;1.00;;;15.08;66.79;98824.81;5079210;27;119479;-70
2022/05/15 08:37:30;;;;;;;14.07;3.15;;;12.60;1.00;;;15.44;65.21;98828.28;5077209;27;130009;-76
2022/05/15 08:39:59;;;;;;;9.50;2.80;;;12.60;1.00;;;15.23;65.95;98831.38;5077942;27;130862;-72
2022/05/15 08:42:42;;;;;;;8.25;3.38;;;12.70;1.00;;;14.91;66.75;98831.47;5077229;27;120103;-74
2022/05/15 08:45:17;;;;;;;8.45;2.70;;;12.70;1.00;;;14.66;67.21;98834.47;5077960;27;120020;-74
2022/05/15 08:47:49;;;;;;;8.52;2.75;;;12.30;1.00;;;14.86;67.41;98820.84;5079410;27;129820;-73
2022/05/15 08:50:20;;;;;;;8.65;2.47;;;12.60;1.00;;;15.22;64.56;98821.59;5080633;27;130034;-74
2022/05/15 08:52:54;;;;;;;6.18;2.65;;;12.70;1.00;;;14.83;63.93;98821.56;5081156;27;119715;-73
2022/05/15 08:55:26;;;;;;;5.70;2.33;;;12.40;1.00;;;14.48;65.56;98827.75;5081616;27;120096;-73
2022/05/15 08:58:01;;;;;;;7.18;2.20;;;12.50;1.00;;;14.20;67.45;98823.97;5080085;27;129687;-71
2022/05/15 09:00:34;;;;;;;9.23;2.88;;;12.60;1.00;;;14.14;67.47;98821.88;5080410;27;129500;-73
2022/05/15 09:03:14;;;;;;;6.22;2.35;;;12.60;1.00;;;13.94;69.10;98827.19;5078859;27;120177;-70
2022/05/15 09:05:54;;;;;;;7.65;3.05;;;12.50;1.00;;;13.74;71.92;98828.22;5081171;27;119998;-73
2022/05/15 09:09:07;;;;;;;10.43;3.67;;;12.10;1.00;;;13.09;75.89;98842.75;5080494;27;129943;-70
2022/05/15 09:11:53;;;;;;;6.15;2.50;;;11.60;1.00;;;12.90;76.59;98827.81;5080624;27;129537;-76
2022/05/15 09:14:41;;;;;;;8.97;2.20;;;11.70;1.00;;;13.34;73.77;98838.06;5079900;27;122356;-79
2022/05/15 09:17:21;;;;;;;8.77;2.40;;;12.00;1.00;;;13.80;72.37;98840.47;5048109;27;122412;-77
2022/05/15 09:19:57;;;;;;;9.95;2.97;;;12.20;1.00;;;14.18;72.23;98839.13;5061919;27;130321;-72
2022/05/15 09:22:31;;;;;;;7.55;2.47;;;12.50;1.00;;;14.56;71.39;98840.41;5080008;27;129613;-75
2022/05/15 09:25:03;;;;;;;7.90;2.58;;;12.70;1.00;;;15.14;68.91;98841.75;5065262;27;118883;-71
2022/05/15 09:27:31;;;;;;;8.52;2.75;;;12.90;1.00;;;15.10;67.54;98845.19;5080360;27;119342;-72
2022/05/15 09:30:02;;;;;;;7.53;2.55;;;12.80;1.00;;;14.82;69.12;98853.53;5079845;27;130370;-74
2022/05/15 09:32:39;;;;;;;8.80;2.80;;;12.80;1.00;;;14.65;68.85;98838.34;5080279;27;130578;-67
2022/05/15 09:35:28;;;;;;;7.38;2.70;;;12.80;1.00;;;14.53;67.72;98846.59;5082404;27;120320;-76
2022/05/15 09:43:30;;;;;;;9.48;2.90;;;12.60;1.00;;;14.61;66.71;98847.59;5059982;27;130149;-73
2022/05/15 09:43:36;;;;;;;7.10;2.20;;;12.70;1.00;;;15.05;65.02;98847.41;5079651;27;130727;-73
2022/05/15 09:46:14;;;;;;;4.90;2.17;;;13.00;1.00;;;14.67;65.77;98857.09;5064940;27;119065;-70
2022/05/15 09:48:58;;;;;;;5.60;2.10;;;13.10;1.00;;;14.33;66.04;98854.69;5079714;27;120236;-73
2022/05/15 09:51:44;;;;;;;8.20;2.17;;;13.00;1.00;;;14.10;66.43;98861.91;5064595;27;130602;-70
2022/05/15 09:54:32;;;;;;;6.95;2.20;;;12.50;1.00;;;13.62;68.46;98867.28;5063954;27;129619;-73
2022/05/15 09:57:22;;;;;;;8.05;2.60;;;12.50;1.00;;;13.19;70.86;98864.06;5078798;27;120151;-73
2022/05/15 10:00:00;;;;;;;6.57;2.13;;;12.40;1.00;;;13.05;72.82;98866.38;5080181;27;119770;-74
2022/05/15 10:02:41;;;;;;;6.75;2.33;;;12.30;1.00;;;13.45;73.36;98868.34;5079555;27;130794;-72
2022/05/15 10:05:21;;;;;;;5.65;2.63;;;12.50;1.00;;;13.95;70.69;98867.00;5060722;27;129669;-72
2022/05/15 10:08:04;;;;;;;7.22;2.75;;;12.80;1.00;;;14.26;67.74;98868.16;5078074;27;121795;-69
2022/05/15 10:10:37;;;;;;;4.78;2.15;;;12.80;1.00;;;14.32;67.68;98874.97;5079143;27;123441;-72
2022/05/15 10:13:12;;;;;;;7.65;2.47;;;13.00;1.00;;;14.13;69.23;98872.09;5078872;27;130021;-71
2022/05/15 10:15:50;;;;;;;6.75;2.50;;;12.90;1.00;;;14.72;66.83;98863.09;5078762;27;129384;-73
2022/05/15 10:18:25;;;;;;;5.78;2.85;;;13.20;1.00;;;14.48;68.33;98872.22;5078769;27;121455;-72
2022/05/15 10:20:56;;;;;;;7.35;2.40;;;13.20;1.00;;;14.29;67.25;98870.19;5079257;27;120006;-72
2022/05/15 10:23:31;;;;;;;6.38;2.88;;;12.90;1.00;;;14.44;67.44;98862.34;5078784;27;130062;-70
2022/05/15 10:26:07;;;;;;;6.43;3.03;;;13.10;1.00;;;15.03;66.08;98864.16;5079023;27;130005;-72
2022/05/15 10:28:44;;;;;;;6.07;2.50;;;13.50;1.00;;;15.34;62.24;98862.47;5063966;27;119797;-70
2022/05/15 10:31:19;;;;;;;4.85;2.03;;;13.60;1.00;;;15.30;61.16;98866.28;5079531;27;120480;-72
2022/05/15 10:33:51;;;;;;;7.85;2.50;;;13.80;1.00;;;15.82;58.22;98871.25;5077880;27;130286;-75
2022/05/15 10:36:51;;;;;;;5.45;2.00;;;13.70;1.00;;;15.82;53.46;98881.44;5078918;27;129605;-74
2022/05/15 10:39:37;;;;;;;3.90;1.80;;;13.70;1.00;;;15.65;54.47;98860.75;5060770;27;120058;-76
2022/05/15 10:42:17;;;;;;;;;;;13.90;1.00;;;15.73;51.39;98864.41;5065048;27;119530;-75
2022/05/15 10:45:00;;;;;;;4.22;1.70;;;13.90;99.90;;;15.63;52.50;98857.59;5079301;27;131909;-73
2022/05/15 10:47:40;;;;;;;4.53;2.00;;;13.70;1.00;;;15.70;52.52;98857.72;5064324;27;130074;-73
2022/05/15 10:50:23;;;;;;;5.60;1.80;;;13.60;1.00;;;16.05;51.11;98853.28;5079730;27;120239;-75
2022/05/15 10:59:46;;;;;;;5.30;2.05;;;14.50;99.90;;;16.66;49.31;98868.00;5081776;27;129330;-76
2022/05/15 11:03:15;;;;;;;6.20;2.20;;;14.80;99.90;;;16.73;50.04;98865.38;5077589;27;122134;-77
2022/05/15 11:06:08;;;;;;;7.70;2.00;;;15.10;99.90;;;17.04;46.80;98855.28;5078722;27;122365;-75